createdAt,value
2023-02-26T00:02:10.805Z,96628.09
2023-02-26T00:04:39.918Z,96639.19
2023-02-26T00:07:08.968Z,96649.47
2023-02-26T00:09:37.814Z,96663.72
2023-02-26T00:12:07.139Z,96668.22
2023-02-26T00:14:36.186Z,96662.94
2023-02-26T00:17:31.027Z,96676.91
2023-02-26T00:20:00.385Z,96677.97
2023-02-26T00:22:29.575Z,96670.81
2023-02-26T00:24:58.414Z,96692.47
2023-02-26T00:27:27.442Z,96690.09
2023-02-26T00:29:56.680Z,96689.31
2023-02-26T00:32:25.952Z,96696.44
2023-02-26T00:34:55.126Z,96692.75
2023-02-26T00:38:00.557Z,96697.47
2023-02-26T00:40:45.713Z,96703.03
2023-02-26T00:43:24.983Z,96686.94
2023-02-26T00:46:08.783Z,96710.13
2023-02-26T00:48:56.089Z,96721.47
2023-02-26T00:51:37.952Z,96732.56
2023-02-26T00:54:17.478Z,96729.38
2023-02-26T00:56:46.354Z,96732.03
2023-02-26T00:59:15.159Z,96723.88
2023-02-26T01:01:45.856Z,96725.44
2023-02-26T01:04:17.766Z,96729.16
2023-02-26T01:06:50.242Z,96741.31
2023-02-26T01:09:37.401Z,96746.34
2023-02-26T01:12:09.769Z,96766.66
2023-02-26T01:14:38.907Z,96766.38
2023-02-26T01:17:20.007Z,96781.97
2023-02-26T01:20:11.882Z,96775.38
2023-02-26T01:22:52.479Z,96776.19
2023-02-26T01:25:27.263Z,96785.44
2023-02-26T01:27:58.240Z,96776.69
2023-02-26T01:30:27.747Z,96774.34
2023-02-26T01:33:26.762Z,96775.66
2023-02-26T01:36:08.513Z,96777.25
2023-02-26T01:39:02.463Z,96800.22
2023-02-26T01:41:40.054Z,96801.53
2023-02-26T01:44:16.067Z,96806.56
2023-02-26T01:47:03.084Z,96800.75
2023-02-26T01:49:32.903Z,96811.34
2023-02-26T01:52:07.224Z,96817.94
2023-02-26T01:54:38.873Z,96817.41
2023-02-26T01:57:18.005Z,96825.88
2023-02-26T01:59:50.589Z,96825.34
2023-02-26T02:02:23.889Z,96822.97
2023-02-26T02:04:54.514Z,96830.34
2023-02-26T02:07:23.512Z,96844.09
2023-02-26T02:09:54.288Z,96851.75
2023-02-26T02:12:55.766Z,96854.41
2023-02-26T02:16:04.532Z,96854.94
2023-02-26T02:18:53.898Z,96858.91
2023-02-26T02:21:48.901Z,96861.03
2023-02-26T02:24:50.689Z,96865.53
2023-02-26T02:27:39.879Z,96872.13
2023-02-26T02:30:11.688Z,96869.47
2023-02-26T02:32:59.181Z,96880.34
2023-02-26T02:35:27.943Z,96876.63
2023-02-26T02:38:06.213Z,96870.03
2023-02-26T02:40:39.102Z,96872.91
2023-02-26T02:43:23.678Z,96883.78
2023-02-26T02:46:17.540Z,96887.44
2023-02-26T02:48:59.805Z,96892.22
2023-02-26T02:51:46.216Z,96898.56
2023-02-26T02:54:22.396Z,96908.63
2023-02-26T02:56:53.124Z,96911.25
2023-02-26T02:59:21.923Z,96916.25
2023-02-26T03:02:01.176Z,96921.78
2023-02-26T03:04:30.238Z,96921.78
2023-02-26T03:06:59.153Z,96925.47
2023-02-26T03:09:28.108Z,96930.50
2023-02-26T03:11:57.164Z,96913.84
2023-02-26T03:14:29.385Z,96937.91
2023-02-26T03:17:14.305Z,96944.47
2023-02-26T03:20:15.555Z,96942.84
2023-02-26T03:23:05.384Z,96949.69
2023-02-26T03:25:43.353Z,96958.19
2023-02-26T03:33:10.928Z,96948.41
2023-02-26T03:35:52.604Z,96936.28
2023-02-26T03:38:47.935Z,96947.66
2023-02-26T03:41:23.650Z,96948.69
2023-02-26T03:44:09.084Z,96948.06
2023-02-26T03:46:45.521Z,96964.13
2023-02-26T03:49:21.563Z,96960.81
2023-02-26T03:51:51.788Z,96957.06
2023-02-26T03:54:48.233Z,96953.88
2023-02-26T03:57:35.896Z,96945.13
2023-02-26T04:00:24.438Z,96943.56
2023-02-26T04:03:11.364Z,96956.53
2023-02-26T04:05:43.971Z,96956.34
2023-02-26T04:08:12.863Z,96945.81
2023-02-26T04:10:46.236Z,96942.09
2023-02-26T04:13:15.382Z,96941.81
2023-02-26T04:15:44.062Z,96946.53
2023-02-26T04:18:12.757Z,96945.75
2023-02-26T04:20:41.477Z,96949.59
2023-02-26T04:23:12.099Z,96944.94
2023-02-26T04:25:41.187Z,96944.66
2023-02-26T04:28:11.084Z,96955.78
2023-02-26T04:30:39.979Z,96953.31
2023-02-26T04:33:10.899Z,96963.84
2023-02-26T04:35:39.788Z,96955.56
2023-02-26T04:38:08.562Z,96946.38
2023-02-26T04:40:37.381Z,96954.09
2023-02-26T04:43:06.336Z,96961.59
2023-02-26T04:45:41.176Z,96950.19
2023-02-26T04:48:09.866Z,96938.72
2023-02-26T04:50:38.555Z,96951.47
2023-02-26T04:53:07.851Z,96965.06
2023-02-26T04:55:41.535Z,96972.28
2023-02-26T04:58:10.432Z,96973.88
2023-02-26T05:00:39.486Z,96974.16
2023-02-26T05:03:10.453Z,96973.56
2023-02-26T05:05:39.188Z,96990.38
2023-02-26T05:08:08.196Z,96987.19
2023-02-26T05:10:36.958Z,97001.88
2023-02-26T05:13:06.061Z,96994.03
2023-02-26T05:15:35.220Z,97001.25
2023-02-26T05:18:04.203Z,96992.81
2023-02-26T05:20:32.889Z,96985.09
2023-02-26T05:23:01.746Z,96991.16
2023-02-26T05:25:30.605Z,96994.63
2023-02-26T05:27:59.267Z,96980.34
2023-02-26T05:30:28.105Z,96992.63
2023-02-26T05:32:56.772Z,96983.97
2023-02-26T05:35:25.417Z,96995.41
2023-02-26T05:37:54.056Z,96999.59
2023-02-26T05:40:23.688Z,96986.63
2023-02-26T05:42:52.605Z,96984.03
2023-02-26T05:45:21.217Z,96986.19
2023-02-26T05:47:49.865Z,96992.09
2023-02-26T05:50:18.598Z,96989.78
2023-02-26T05:52:47.358Z,96971.53
2023-02-26T05:55:16.030Z,96986.84
2023-02-26T05:57:44.803Z,96993.16
2023-02-26T06:00:14.852Z,96984.34
2023-02-26T06:02:43.707Z,96981.44
2023-02-26T06:05:12.417Z,96995.94
2023-02-26T06:07:41.033Z,96997.16
2023-02-26T06:10:10.504Z,96999.34
2023-02-26T06:12:39.677Z,97007.59
2023-02-26T06:15:09.909Z,97009.91
2023-02-26T06:17:40.680Z,97005.66
2023-02-26T06:20:11.119Z,96986.78
2023-02-26T06:22:40.224Z,97023.13
2023-02-26T06:25:09.682Z,97014.78
2023-02-26T06:27:38.418Z,97010.19
2023-02-26T06:30:08.025Z,97005.00
2023-02-26T06:32:37.012Z,97012.84
2023-02-26T06:35:06.963Z,97019.78
2023-02-26T06:37:35.684Z,97014.66
2023-02-26T06:40:05.261Z,97030.34
2023-02-26T06:42:33.937Z,97036.31
2023-02-26T06:45:02.690Z,97031.19
2023-02-26T06:47:32.021Z,97037.50
2023-02-26T06:50:00.696Z,97039.88
2023-02-26T06:52:29.533Z,97023.25
2023-02-26T06:54:58.319Z,97045.28
2023-02-26T06:57:27.029Z,97041.47
2023-02-26T06:59:55.769Z,97051.91
2023-02-26T07:02:25.006Z,97044.34
2023-02-26T07:04:53.799Z,97058.44
2023-02-26T07:07:22.450Z,97061.94
2023-02-26T07:09:51.096Z,97048.69
2023-02-26T07:12:19.772Z,97052.16
2023-02-26T07:14:48.935Z,97058.00
2023-02-26T07:17:24.115Z,97071.25
2023-02-26T07:19:53.685Z,97061.72
2023-02-26T07:22:22.465Z,97072.81
2023-02-26T07:24:51.814Z,97074.13
2023-02-26T07:27:20.575Z,97073.63
2023-02-26T07:29:49.217Z,97070.72
2023-02-26T07:32:17.936Z,97072.59
2023-02-26T07:34:46.656Z,97074.44
2023-02-26T07:37:15.521Z,97088.25
2023-02-26T07:39:44.187Z,97078.44
2023-02-26T07:42:13.129Z,97088.53
2023-02-26T07:44:44.130Z,97090.38
2023-02-26T07:47:13.420Z,97075.81
2023-02-26T07:49:42.342Z,97084.81
2023-02-26T07:52:11.153Z,97089.84
2023-02-26T07:54:40.165Z,97092.22
2023-02-26T07:57:08.822Z,97092.47
2023-02-26T07:59:37.593Z,97089.31
2023-02-26T08:02:08.253Z,97100.69
2023-02-26T08:04:37.194Z,97109.94
2023-02-26T08:07:06.109Z,97112.34
2023-02-26T08:09:34.856Z,97109.16
2023-02-26T08:12:04.139Z,97097.22
2023-02-26T08:14:32.796Z,97108.34
2023-02-26T08:17:01.620Z,97103.53
2023-02-26T08:19:30.366Z,97120.25
2023-02-26T08:21:59.115Z,97114.97
2023-02-26T08:24:27.862Z,97112.84
2023-02-26T08:26:57.281Z,97121.31
2023-02-26T08:29:26.131Z,97134.53
2023-02-26T08:31:54.905Z,97135.31
2023-02-26T08:34:23.789Z,97132.38
2023-02-26T08:36:52.516Z,97139.53
2023-02-26T08:39:21.298Z,97147.22
2023-02-26T08:41:49.991Z,97144.31
2023-02-26T08:44:19.197Z,97146.72
2023-02-26T08:46:47.929Z,97153.34
2023-02-26T08:49:16.635Z,97151.50
2023-02-26T08:51:45.358Z,97135.63
2023-02-26T08:54:14.498Z,97149.13
2023-02-26T08:56:43.554Z,97152.00
2023-02-26T08:59:13.652Z,97149.88
2023-02-26T09:01:42.724Z,97161.81
2023-02-26T09:04:11.722Z,97156.75
2023-02-26T09:06:40.350Z,97167.25
2023-02-26T09:09:09.419Z,97167.66
2023-02-26T09:11:38.438Z,97177.09
2023-02-26T09:14:07.195Z,97180.53
2023-02-26T09:16:39.395Z,97178.94
2023-02-26T09:19:08.912Z,97183.72
2023-02-26T09:21:38.156Z,97180.81
2023-02-26T09:24:07.300Z,97182.97
2023-02-26T09:26:36.249Z,97193.56
2023-02-26T09:29:05.530Z,97194.66
2023-02-26T09:31:34.488Z,97193.09
2023-02-26T09:34:03.909Z,97183.31
2023-02-26T09:36:32.890Z,97196.28
2023-02-26T09:39:01.657Z,97196.53
2023-02-26T09:41:55.225Z,97206.28
2023-02-26T09:44:33.012Z,97212.59
2023-02-26T09:47:07.773Z,97212.00
2023-02-26T09:49:55.414Z,97214.59
2023-02-26T09:52:46.111Z,97216.63
2023-02-26T09:55:30.683Z,97227.88
2023-02-26T09:58:05.959Z,97226.09
2023-02-26T10:00:59.432Z,97236.00
2023-02-26T10:03:35.409Z,97236.09
2023-02-26T10:06:26.653Z,97244.78
2023-02-26T10:09:21.632Z,97244.59
2023-02-26T10:12:11.227Z,97242.94
2023-02-26T10:14:39.875Z,97249.75
2023-02-26T10:17:17.661Z,97254.47
2023-02-26T10:19:52.325Z,97254.97
2023-02-26T10:22:42.919Z,97246.94
2023-02-26T10:25:22.229Z,97268.00
2023-02-26T10:28:11.378Z,97259.25
2023-02-26T10:30:51.429Z,97275.00
2023-02-26T10:33:52.438Z,97284.06
2023-02-26T10:36:39.185Z,97282.63
2023-02-26T10:39:28.090Z,97262.03
2023-02-26T10:42:02.310Z,97296.19
2023-02-26T10:44:54.254Z,97293.22
2023-02-26T10:47:41.234Z,97305.38
2023-02-26T10:50:15.321Z,97302.09
2023-02-26T10:52:46.480Z,97306.66
2023-02-26T10:55:33.534Z,97314.81
2023-02-26T10:58:15.907Z,97320.69
2023-02-26T11:00:48.048Z,97314.28
2023-02-26T11:03:32.857Z,97319.34
2023-02-26T11:06:07.133Z,97326.28
2023-02-26T11:08:45.824Z,97327.16
2023-02-26T11:11:49.124Z,97346.94
2023-02-26T11:14:18.010Z,97346.41
2023-02-26T11:17:04.790Z,97347.44
2023-02-26T11:19:40.293Z,97350.22
2023-02-26T11:22:14.210Z,97354.03
2023-02-26T11:24:47.537Z,97363.44
2023-02-26T11:27:30.953Z,97362.31
2023-02-26T11:30:03.616Z,97365.06
2023-02-26T11:32:34.764Z,97369.94
2023-02-26T11:35:07.857Z,97369.72
2023-02-26T11:37:41.969Z,97380.38
2023-02-26T11:40:23.034Z,97363.41
2023-02-26T11:42:59.919Z,97382.59
2023-02-26T11:45:28.363Z,97386.22
2023-02-26T11:48:07.662Z,97380.06
2023-02-26T11:50:59.958Z,97402.94
2023-02-26T11:53:38.902Z,97397.66
2023-02-26T11:56:14.610Z,97398.56
2023-02-26T11:58:46.841Z,97400.75
2023-02-26T12:01:17.801Z,97412.63
2023-02-26T12:03:49.124Z,97416.50
2023-02-26T12:06:25.188Z,97420.03
2023-02-26T12:08:54.714Z,97412.03
2023-02-26T12:11:50.700Z,97423.78
2023-02-26T12:14:22.461Z,97430.22
2023-02-26T12:16:57.231Z,97431.00
2023-02-26T12:19:44.067Z,97435.50
2023-02-26T12:22:59.355Z,97436.66
2023-02-26T12:25:52.870Z,97441.19
2023-02-26T12:28:40.167Z,97441.25
2023-02-26T12:31:33.694Z,97444.97
2023-02-26T12:34:08.968Z,97452.47
2023-02-26T12:36:57.742Z,97448.75
2023-02-26T12:39:52.123Z,97454.69
2023-02-26T12:42:43.045Z,97445.56
2023-02-26T12:45:23.946Z,97457.00
2023-02-26T12:48:04.678Z,97469.75
2023-02-26T12:51:01.054Z,97476.69
2023-02-26T12:53:40.564Z,97481.16
2023-02-26T12:56:24.098Z,97483.66
2023-02-26T12:59:04.837Z,97485.28
2023-02-26T13:02:01.155Z,97494.78
2023-02-26T13:04:42.596Z,97496.22
2023-02-26T13:07:37.314Z,97497.09
2023-02-26T13:10:19.250Z,97498.53
2023-02-26T13:13:00.357Z,97502.16
2023-02-26T13:15:49.984Z,97506.00
2023-02-26T13:18:29.727Z,97499.38
2023-02-26T13:21:04.364Z,97494.78
2023-02-26T13:24:18.241Z,97497.41
2023-02-26T13:26:49.443Z,97502.22
2023-02-26T13:29:21.864Z,97508.25
2023-02-26T13:31:59.795Z,97509.69
2023-02-26T13:34:41.850Z,97513.53
2023-02-26T13:37:22.330Z,97508.97
2023-02-26T13:40:15.183Z,97510.41
2023-02-26T13:43:05.396Z,97518.50
2023-02-26T13:46:01.960Z,97523.34
2023-02-26T13:48:30.708Z,97530.47
2023-02-26T13:51:20.938Z,97527.66
2023-02-26T13:53:54.964Z,97517.06
2023-02-26T13:56:32.239Z,97535.38
2023-02-26T13:59:03.802Z,97539.03
2023-02-26T14:01:35.703Z,97532.16
2023-02-26T14:04:25.351Z,97544.81
2023-02-26T14:07:14.269Z,97541.97
2023-02-26T14:09:57.709Z,97550.84
2023-02-26T14:12:39.268Z,97536.00
2023-02-26T14:15:14.153Z,97543.63
2023-02-26T14:18:01.608Z,97561.78
2023-02-26T14:20:32.436Z,97564.84
2023-02-26T14:23:12.769Z,97563.88
2023-02-26T14:25:54.076Z,97577.19
2023-02-26T14:28:25.936Z,97572.75
2023-02-26T14:31:11.769Z,97572.78
2023-02-26T14:33:57.747Z,97578.84
2023-02-26T14:36:56.495Z,97593.94
2023-02-26T14:39:38.340Z,97590.88
2023-02-26T14:42:30.288Z,97562.56
2023-02-26T14:45:11.964Z,97590.88
2023-02-26T14:47:41.124Z,97603.16
2023-02-26T14:50:16.614Z,97582.09
2023-02-26T14:53:14.444Z,97604.41
2023-02-26T14:55:57.200Z,97607.88
2023-02-26T14:58:44.909Z,97597.41
2023-02-26T15:01:36.898Z,97610.09
2023-02-26T15:04:15.738Z,97607.69
2023-02-26T15:07:12.437Z,97617.19
2023-02-26T15:09:55.898Z,97614.56
2023-02-26T15:12:43.089Z,97623.03
2023-02-26T15:15:37.368Z,97611.97
2023-02-26T15:18:17.112Z,97603.31
2023-02-26T15:21:07.342Z,97618.03
2023-02-26T15:23:59.624Z,97613.16
2023-02-26T15:26:41.318Z,97626.25
2023-02-26T15:29:14.183Z,97624.84
2023-02-26T15:31:51.753Z,97623.63
2023-02-26T15:34:22.012Z,97628.84
2023-02-26T15:36:54.743Z,97632.50
2023-02-26T15:39:25.228Z,97645.56
2023-02-26T15:41:56.332Z,97634.91
2023-02-26T15:44:31.119Z,97637.94
2023-02-26T15:47:05.306Z,97634.50
2023-02-26T15:49:38.290Z,97642.53
2023-02-26T15:52:13.206Z,97638.31
2023-02-26T15:54:46.899Z,97641.13
2023-02-26T15:57:17.631Z,97641.31
2023-02-26T15:59:50.088Z,97643.53
2023-02-26T16:02:32.390Z,97642.94
2023-02-26T16:05:03.937Z,97642.13
2023-02-26T16:07:33.015Z,97640.72
2023-02-26T16:10:08.505Z,97644.53
2023-02-26T16:12:44.271Z,97640.13
2023-02-26T16:15:20.223Z,97652.59
2023-02-26T16:17:52.210Z,97644.53
2023-02-26T16:20:27.603Z,97650.19
2023-02-26T16:23:02.864Z,97647.16
2023-02-26T16:25:41.529Z,97649.34
2023-02-26T16:28:21.886Z,97650.16
2023-02-26T16:30:55.624Z,97655.94
2023-02-26T16:33:26.911Z,97653.97
2023-02-26T16:36:11.536Z,97643.09
2023-02-26T16:38:50.418Z,97662.78
2023-02-26T16:41:25.234Z,97659.78
2023-02-26T16:44:01.876Z,97645.88
2023-02-26T16:46:38.020Z,97650.72
2023-02-26T16:49:19.446Z,97643.84
2023-02-26T16:51:49.642Z,97659.09
2023-02-26T16:54:24.328Z,97654.28
2023-02-26T16:56:59.978Z,97659.91
2023-02-26T16:59:36.074Z,97658.88
2023-02-26T17:02:19.268Z,97660.88
2023-02-26T17:04:54.178Z,97660.44
2023-02-26T17:07:35.531Z,97652.41
2023-02-26T17:10:25.657Z,97660.25
2023-02-26T17:13:05.452Z,97664.25
2023-02-26T17:15:39.561Z,97657.59
2023-02-26T17:18:10.674Z,97659.38
2023-02-26T17:20:41.304Z,97654.13
2023-02-26T17:23:12.471Z,97658.78
2023-02-26T17:25:44.477Z,97655.94
2023-02-26T17:28:21.929Z,97670.63
2023-02-26T17:30:50.746Z,97664.97
2023-02-26T17:33:20.595Z,97669.78
2023-02-26T17:35:52.698Z,97671.00
2023-02-26T17:38:21.646Z,97675.78
2023-02-26T17:40:54.896Z,97683.19
2023-02-26T17:43:24.516Z,97683.81
2023-02-26T17:45:53.917Z,97686.03
2023-02-26T17:48:23.539Z,97694.50
2023-02-26T17:50:55.500Z,97692.88
2023-02-26T17:53:30.174Z,97695.47
2023-02-26T17:56:00.878Z,97689.63
2023-02-26T17:58:34.360Z,97689.03
2023-02-26T18:01:05.417Z,97703.09
2023-02-26T18:03:34.526Z,97708.13
2023-02-26T18:06:03.857Z,97708.16
2023-02-26T18:08:37.657Z,97703.75
2023-02-26T18:11:06.575Z,97709.19
2023-02-26T18:13:35.468Z,97712.88
2023-02-26T18:16:05.904Z,97714.34
2023-02-26T18:18:34.712Z,97722.66
2023-02-26T18:21:05.168Z,97719.84
2023-02-26T18:23:34.973Z,97703.59
2023-02-26T18:26:03.941Z,97710.06
2023-02-26T18:28:32.897Z,97710.28
2023-02-26T18:31:03.140Z,97707.84
2023-02-26T18:33:31.991Z,97710.84
2023-02-26T18:36:00.974Z,97709.03
2023-02-26T18:38:30.219Z,97711.47
2023-02-26T18:40:59.691Z,97708.59
2023-02-26T18:43:29.223Z,97711.03
2023-02-26T18:46:01.912Z,97712.41
2023-02-26T18:48:30.827Z,97714.81
2023-02-26T18:51:00.262Z,97719.25
2023-02-26T18:53:29.224Z,97719.00
2023-02-26T18:55:58.811Z,97722.66
2023-02-26T18:58:27.667Z,97714.19
2023-02-26T19:00:57.542Z,97722.63
2023-02-26T19:03:27.709Z,97717.72
2023-02-26T19:06:02.057Z,97728.38
2023-02-26T19:08:31.688Z,97731.13
2023-02-26T19:11:00.536Z,97727.06
2023-02-26T19:13:29.766Z,97738.72
2023-02-26T19:15:58.656Z,97733.84
2023-02-26T19:18:27.758Z,97734.63
2023-02-26T19:20:57.081Z,97743.19
2023-02-26T19:23:25.910Z,97732.91
2023-02-26T19:25:55.647Z,97743.97
2023-02-26T19:28:25.026Z,97750.81
2023-02-26T19:30:56.920Z,97738.56
2023-02-26T19:33:26.680Z,97744.75
2023-02-26T19:35:55.582Z,97734.47
2023-02-26T19:38:24.387Z,97746.09
2023-02-26T19:40:53.617Z,97749.13
2023-02-26T19:43:23.963Z,97742.06
2023-02-26T19:45:53.401Z,97736.84
2023-02-26T19:48:22.680Z,97747.72
2023-02-26T19:50:53.302Z,97750.38
2023-02-26T19:53:22.944Z,97742.94
2023-02-26T19:55:51.940Z,97750.38
2023-02-26T19:58:20.734Z,97752.53
2023-02-26T20:00:50.413Z,97753.31
2023-02-26T20:03:19.416Z,97739.59
2023-02-26T20:05:48.951Z,97737.38
2023-02-26T20:08:19.232Z,97738.53
2023-02-26T20:10:51.611Z,97731.91
2023-02-26T20:13:21.129Z,97714.50
2023-02-26T20:15:53.220Z,97719.09
2023-02-26T20:18:22.545Z,97738.75
2023-02-26T20:20:51.695Z,97733.50
2023-02-26T20:23:20.674Z,97734.06
2023-02-26T20:25:51.047Z,97732.19
2023-02-26T20:28:20.140Z,97740.13
2023-02-26T20:30:48.937Z,97739.28
2023-02-26T20:33:18.342Z,97735.63
2023-02-26T20:35:47.974Z,97738.16
2023-02-26T20:38:21.124Z,97748.41
2023-02-26T20:40:50.903Z,97737.34
2023-02-26T20:43:19.827Z,97744.09
2023-02-26T20:45:49.872Z,97744.09
2023-02-26T20:48:18.914Z,97743.91
2023-02-26T20:50:49.730Z,97737.34
2023-02-26T20:53:18.664Z,97744.81
2023-02-26T20:55:47.882Z,97740.28
2023-02-26T20:58:17.019Z,97738.50
2023-02-26T21:00:46.967Z,97733.91
2023-02-26T21:03:16.233Z,97744.81
2023-02-26T21:05:47.434Z,97737.22
2023-02-26T21:08:16.660Z,97743.72
2023-02-26T21:10:45.494Z,97740.97
2023-02-26T21:13:14.599Z,97731.56
2023-02-26T21:15:45.428Z,97746.13
2023-02-26T21:18:16.767Z,97755.81
2023-02-26T21:20:45.648Z,97751.63
2023-02-26T21:23:14.558Z,97754.69
2023-02-26T21:25:43.935Z,97748.03
2023-02-26T21:28:12.873Z,97744.56
2023-02-26T21:30:41.750Z,97746.13
2023-02-26T21:33:10.625Z,97737.50
2023-02-26T21:35:39.528Z,97745.66
2023-02-26T21:38:08.852Z,97739.19
2023-02-26T21:40:38.706Z,97744.78
2023-02-26T21:43:11.088Z,97748.19
2023-02-26T21:45:42.318Z,97748.31
2023-02-26T21:48:11.190Z,97741.50
2023-02-26T21:50:41.783Z,97744.91
2023-02-26T21:53:11.036Z,97746.09
2023-02-26T21:55:39.861Z,97748.44
2023-02-26T21:58:08.904Z,97755.81
2023-02-26T22:00:39.376Z,97758.78
2023-02-26T22:03:08.524Z,97750.81
2023-02-26T22:05:37.469Z,97758.13
2023-02-26T22:08:06.399Z,97761.47
2023-02-26T22:10:35.357Z,97752.41
2023-02-26T22:13:04.334Z,97756.09
2023-02-26T22:15:33.093Z,97758.09
2023-02-26T22:18:01.941Z,97748.38
2023-02-26T22:20:31.077Z,97765.81
2023-02-26T22:22:59.962Z,97771.41
2023-02-26T22:25:28.769Z,97767.09
2023-02-26T22:27:58.146Z,97765.91
2023-02-26T22:30:27.991Z,97763.59
2023-02-26T22:32:56.908Z,97767.97
2023-02-26T22:35:25.710Z,97762.16
2023-02-26T22:37:56.095Z,97767.88
2023-02-26T22:40:25.954Z,97771.03
2023-02-26T22:42:54.878Z,97773.63
2023-02-26T22:45:23.928Z,97774.00
2023-02-26T22:47:53.651Z,97767.38
2023-02-26T22:50:22.571Z,97768.06
2023-02-26T22:52:51.381Z,97759.47
2023-02-26T22:55:20.478Z,97764.56
2023-02-26T22:57:49.399Z,97770.41
2023-02-26T23:00:21.500Z,97764.75
2023-02-26T23:02:51.488Z,97774.41
2023-02-26T23:05:22.120Z,97771.19
2023-02-26T23:07:52.667Z,97775.16
2023-02-26T23:10:22.183Z,97772.09
2023-02-26T23:12:51.086Z,97775.50
2023-02-26T23:15:20.185Z,97782.31
2023-02-26T23:17:49.072Z,97773.06
2023-02-26T23:20:18.679Z,97776.13
2023-02-26T23:22:47.696Z,97771.56
2023-02-26T23:25:16.701Z,97782.88
2023-02-26T23:27:49.410Z,97777.94
2023-02-26T23:30:19.314Z,97770.94
2023-02-26T23:32:48.615Z,97766.91
2023-02-26T23:35:17.594Z,97777.31
2023-02-26T23:37:46.467Z,97775.41
2023-02-26T23:40:16.937Z,97775.59
2023-02-26T23:42:45.874Z,97772.53
2023-02-26T23:45:14.873Z,97773.88
2023-02-26T23:47:43.670Z,97780.38
2023-02-26T23:50:12.963Z,97772.75
2023-02-26T23:52:41.787Z,97777.59
2023-02-26T23:55:12.431Z,97778.84
2023-02-26T23:57:43.779Z,97777.84
